Time;durP1;ratioP1;P1;durP2;ratioP2;P2;SDS_P1;SDS_P2;PMS_P1;PMS_P2;Temp;Humidity;BMP_temperature;BMP_pressure;BME280_temperature;BME280_humidity;BME280_pressure;Samples;Min_cycle;Max_cycle;Signal;HPM_P1;HPM_P2
2023/08/24 00:00:27;;;;;;;7.57;5.45;;;;;;;;;;5054509;28;20051;-80
2023/08/24 00:02:53;;;;;;;7.65;5.80;;;;;;;;;;5056905;28;20073;-77
2023/08/24 00:05:19;;;;;;;9.02;5.60;;;;;;;;;;5058486;28;20053;-77
2023/08/24 00:07:45;;;;;;;8.93;5.60;;;;;;;;;;5054631;28;20052;-78
2023/08/24 00:10:11;;;;;;;10.38;5.97;;;;;;;;;;5049801;28;20102;-78
2023/08/24 00:12:39;;;;;;;11.55;6.60;;;;;;;;;;5056744;28;20449;-77
2023/08/24 00:15:05;;;;;;;10.07;6.53;;;;;;;;;;5045828;28;20072;-78
2023/08/24 00:17:33;;;;;;;11.10;7.45;;;;;;;;;;5056111;28;20391;-78
2023/08/24 00:19:59;;;;;;;12.45;6.82;;;;;;;;;;5055151;28;20523;-78
2023/08/24 00:22:25;;;;;;;8.93;5.75;;;;;;;;;;5055970;28;20037;-79
2023/08/24 00:24:51;;;;;;;10.32;6.38;;;;;;;;;;5057429;28;20047;-78
2023/08/24 00:27:17;;;;;;;9.60;5.80;;;;;;;;;;5056856;28;20041;-78
2023/08/24 00:29:44;;;;;;;10.70;6.80;;;;;;;;;;5049363;28;20049;-77
2023/08/24 00:32:10;;;;;;;8.82;6.35;;;;;;;;;;5037817;28;20109;-78
2023/08/24 00:34:36;;;;;;;10.88;7.65;;;;;;;;;;5055627;28;20052;-77
2023/08/24 00:37:02;;;;;;;8.50;5.93;;;;;;;;;;5056698;28;20045;-77
2023/08/24 00:39:29;;;;;;;9.15;6.25;;;;;;;;;;5050300;28;20047;-77
2023/08/24 00:41:55;;;;;;;10.32;6.78;;;;;;;;;;5054589;28;20124;-79
2023/08/24 00:44:21;;;;;;;8.85;6.35;;;;;;;;;;5047055;28;20045;-78
2023/08/24 00:46:48;;;;;;;9.40;7.00;;;;;;;;;;5055768;28;20040;-78
2023/08/24 00:49:14;;;;;;;10.88;7.25;;;;;;;;;;5051940;28;20055;-77
2023/08/24 00:51:40;;;;;;;10.13;6.32;;;;;;;;;;5053857;28;20048;-78
2023/08/24 00:54:06;;;;;;;8.55;6.65;;;;;;;;;;5052095;28;20040;-78
2023/08/24 00:56:33;;;;;;;12.43;7.05;;;;;;;;;;5055140;28;20044;-77
2023/08/24 00:58:59;;;;;;;8.20;5.90;;;;;;;;;;5055733;28;20450;-77
2023/08/24 01:01:25;;;;;;;8.27;6.10;;;;;;;;;;5056168;28;20434;-77
2023/08/24 01:03:51;;;;;;;6.95;5.07;;;;;;;;;;5054891;28;20056;-78
2023/08/24 01:06:17;;;;;;;8.02;5.90;;;;;;;;;;5054356;28;20462;-78
2023/08/24 01:08:43;;;;;;;8.05;5.50;;;;;;;;;;5054837;28;20059;-79
2023/08/24 01:11:17;;;;;;;6.72;4.20;;;;;;;;;;5055737;28;20045;-78
2023/08/24 01:13:45;;;;;;;6.43;4.00;;;;;;;;;;5055090;28;20124;-78
2023/08/24 01:16:17;;;;;;;6.53;4.30;;;;;;;;;;5054093;28;20056;-78
2023/08/24 01:18:44;;;;;;;11.10;5.65;;;;;;;;;;5069646;28;20041;-78
2023/08/24 01:21:10;;;;;;;7.07;4.65;;;;;;;;;;5054563;28;20052;-78
2023/08/24 01:23:45;;;;;;;6.25;4.43;;;;;;;;;;5048113;28;20575;-79
2023/08/24 01:26:12;;;;;;;7.57;5.47;;;;;;;;;;5044694;28;20037;-79
2023/08/24 01:28:39;;;;;;;8.43;5.45;;;;;;;;;;5045341;28;20041;-80
2023/08/24 01:31:05;;;;;;;15.75;5.15;;;;;;;;;;5043251;28;20388;-78
2023/08/24 01:33:32;;;;;;;6.90;5.38;;;;;;;;;;5059745;28;20503;-79
2023/08/24 01:35:58;;;;;;;8.38;5.80;;;;;;;;;;5058354;28;20045;-78
2023/08/24 01:38:24;;;;;;;8.82;5.43;;;;;;;;;;5059080;28;20037;-79
2023/08/24 01:41:00;;;;;;;8.30;5.47;;;;;;;;;;5057549;28;20107;-79
2023/08/24 01:43:29;;;;;;;8.77;5.15;;;;;;;;;;5051971;28;20040;-78
2023/08/24 01:45:56;;;;;;;9.27;5.65;;;;;;;;;;5055397;28;20041;-78
2023/08/24 01:48:23;;;;;;;10.15;6.13;;;;;;;;;;5050424;28;20529;-78
2023/08/24 01:50:50;;;;;;;10.40;7.78;;;;;;;;;;5055839;28;20048;-78
2023/08/24 01:53:16;;;;;;;15.07;8.80;;;;;;;;;;5056914;28;20040;-79
2023/08/24 01:55:43;;;;;;;14.82;9.40;;;;;;;;;;5054600;28;20049;-79
2023/08/24 01:58:09;;;;;;;17.33;9.77;;;;;;;;;;5045256;28;20469;-78
2023/08/24 02:00:35;;;;;;;14.65;9.70;;;;;;;;;;5055343;28;20040;-78
2023/08/24 02:03:01;;;;;;;16.33;11.15;;;;;;;;;;5057438;28;20452;-77
2023/08/24 02:05:28;;;;;;;15.73;10.80;;;;;;;;;;5055692;28;20049;-78
2023/08/24 02:07:55;;;;;;;16.23;10.65;;;;;;;;;;5052037;28;20072;-78
2023/08/24 02:10:21;;;;;;;13.65;10.95;;;;;;;;;;5055541;28;20410;-78
2023/08/24 02:12:47;;;;;;;15.30;10.45;;;;;;;;;;5055940;28;20045;-77
2023/08/24 02:15:13;;;;;;;15.30;10.80;;;;;;;;;;5056715;28;20437;-78
2023/08/24 02:17:39;;;;;;;15.82;10.48;;;;;;;;;;5047216;28;20045;-78
2023/08/24 02:20:08;;;;;;;17.42;10.95;;;;;;;;;;5051613;28;20396;-78
2023/08/24 02:22:34;;;;;;;19.80;10.68;;;;;;;;;;5055173;28;20543;-78
2023/08/24 02:25:05;;;;;;;16.08;10.48;;;;;;;;;;5055754;28;20041;-77
2023/08/24 02:27:31;;;;;;;16.97;11.43;;;;;;;;;;5053449;28;20170;-78
2023/08/24 02:29:57;;;;;;;19.85;10.52;;;;;;;;;;5054756;28;20049;-78
2023/08/24 02:32:23;;;;;;;15.15;10.38;;;;;;;;;;5055217;28;20097;-78
2023/08/24 02:34:49;;;;;;;13.60;8.75;;;;;;;;;;5054769;28;20049;-78
2023/08/24 02:37:15;;;;;;;11.27;8.73;;;;;;;;;;5054175;28;20044;-77
2023/08/24 02:39:41;;;;;;;13.48;8.27;;;;;;;;;;5054405;28;20059;-78
2023/08/24 02:42:07;;;;;;;10.00;7.78;;;;;;;;;;5053550;28;20049;-77
2023/08/24 02:44:34;;;;;;;9.82;7.95;;;;;;;;;;5056192;28;20099;-78
2023/08/24 02:47:00;;;;;;;11.48;8.38;;;;;;;;;;5055854;28;20041;-78
2023/08/24 02:49:26;;;;;;;11.88;8.63;;;;;;;;;;5055729;28;20037;-78
2023/08/24 02:51:52;;;;;;;18.08;9.20;;;;;;;;;;5055579;28;20041;-77
2023/08/24 02:54:18;;;;;;;9.88;8.40;;;;;;;;;;5055990;28;20048;-78
2023/08/24 02:56:45;;;;;;;12.13;8.95;;;;;;;;;;5055258;28;20110;-78
2023/08/24 02:59:11;;;;;;;13.15;8.88;;;;;;;;;;5058070;28;20100;-78
2023/08/24 03:01:38;;;;;;;9.68;8.48;;;;;;;;;;5056045;28;20045;-78
2023/08/24 03:04:05;;;;;;;11.77;9.10;;;;;;;;;;5047614;28;20061;-77
2023/08/24 03:06:31;;;;;;;15.05;9.73;;;;;;;;;;5055870;28;20071;-78
2023/08/24 03:08:57;;;;;;;12.02;7.93;;;;;;;;;;5054955;28;20057;-78
2023/08/24 03:11:23;;;;;;;10.32;9.18;;;;;;;;;;5037339;28;20104;-78
2023/08/24 03:13:49;;;;;;;12.20;9.15;;;;;;;;;;5055536;28;20045;-77
2023/08/24 03:16:16;;;;;;;10.45;9.27;;;;;;;;;;5055112;28;20041;-78
2023/08/24 03:18:42;;;;;;;12.60;9.20;;;;;;;;;;5053933;28;20119;-77
2023/08/24 03:21:08;;;;;;;14.00;9.45;;;;;;;;;;5055284;28;20131;-78
2023/08/24 03:23:34;;;;;;;21.33;10.82;;;;;;;;;;5054792;28;20372;-78
2023/08/24 03:26:00;;;;;;;13.13;9.75;;;;;;;;;;5054376;28;20044;-78
2023/08/24 03:28:26;;;;;;;11.82;9.10;;;;;;;;;;5053570;28;20037;-78
2023/08/24 03:30:55;;;;;;;12.43;9.57;;;;;;;;;;5055698;28;20040;-78
2023/08/24 03:33:21;;;;;;;12.30;10.18;;;;;;;;;;5049773;28;20056;-78
2023/08/24 03:35:47;;;;;;;12.43;9.73;;;;;;;;;;5053679;28;20059;-78
2023/08/24 03:38:14;;;;;;;14.80;10.32;;;;;;;;;;5055920;28;20040;-77
2023/08/24 03:40:40;;;;;;;15.15;9.15;;;;;;;;;;5055368;28;20507;-77
2023/08/24 03:43:06;;;;;;;11.50;9.23;;;;;;;;;;5052732;28;20087;-78
2023/08/24 03:45:32;;;;;;;12.45;10.35;;;;;;;;;;5052723;28;20045;-77
2023/08/24 03:47:58;;;;;;;13.63;9.50;;;;;;;;;;5051919;28;20049;-78
2023/08/24 03:50:25;;;;;;;12.10;9.98;;;;;;;;;;5036060;28;20041;-78
2023/08/24 03:52:52;;;;;;;14.05;10.68;;;;;;;;;;5053353;28;20119;-77
2023/08/24 03:55:18;;;;;;;14.10;10.40;;;;;;;;;;5053873;28;20127;-77
2023/08/24 03:57:45;;;;;;;11.65;9.70;;;;;;;;;;5054646;28;20045;-77
2023/08/24 04:00:11;;;;;;;12.77;8.57;;;;;;;;;;5052432;28;20045;-77
2023/08/24 04:02:43;;;;;;;10.88;9.20;;;;;;;;;;5053551;28;20049;-77
2023/08/24 04:05:09;;;;;;;12.70;10.10;;;;;;;;;;5052357;28;20057;-77
2023/08/24 04:07:39;;;;;;;14.65;10.93;;;;;;;;;;5053768;28;20079;-78
2023/08/24 04:10:06;;;;;;;15.18;9.85;;;;;;;;;;5052967;28;20491;-77
2023/08/24 04:12:32;;;;;;;14.23;9.70;;;;;;;;;;5054868;28;20499;-77
2023/08/24 04:14:59;;;;;;;16.20;10.43;;;;;;;;;;5053523;28;20048;-78
2023/08/24 04:17:25;;;;;;;14.40;10.32;;;;;;;;;;5055078;28;20100;-78
2023/08/24 04:19:52;;;;;;;12.05;10.75;;;;;;;;;;5050368;28;20047;-77
2023/08/24 04:22:18;;;;;;;13.07;10.35;;;;;;;;;;5053209;28;20049;-77
2023/08/24 04:24:44;;;;;;;15.23;11.60;;;;;;;;;;5053770;28;20045;-78
2023/08/24 04:27:11;;;;;;;16.15;10.15;;;;;;;;;;5053075;28;20044;-78
2023/08/24 04:29:37;;;;;;;13.35;10.05;;;;;;;;;;5047428;28;20060;-78
2023/08/24 04:32:03;;;;;;;11.82;9.70;;;;;;;;;;5050546;28;20040;-78
2023/08/24 04:34:29;;;;;;;11.45;8.70;;;;;;;;;;5053443;28;20044;-77
2023/08/24 04:36:55;;;;;;;12.57;9.00;;;;;;;;;;5051864;28;20068;-78
2023/08/24 04:39:21;;;;;;;12.00;8.85;;;;;;;;;;5053762;28;20110;-77
2023/08/24 04:41:48;;;;;;;12.10;8.82;;;;;;;;;;5052889;28;20037;-77
2023/08/24 04:44:14;;;;;;;11.60;8.95;;;;;;;;;;5036624;28;20046;-78
2023/08/24 04:46:40;;;;;;;15.10;9.75;;;;;;;;;;5051173;28;20055;-77
2023/08/24 04:49:06;;;;;;;11.27;9.40;;;;;;;;;;5050360;28;20065;-77
2023/08/24 04:51:32;;;;;;;14.55;9.45;;;;;;;;;;5053960;28;20495;-77
2023/08/24 04:53:58;;;;;;;11.55;8.23;;;;;;;;;;5053300;28;20095;-78
2023/08/24 04:56:24;;;;;;;14.23;10.50;;;;;;;;;;5053765;28;20514;-77
2023/08/24 04:58:57;;;;;;;17.13;10.77;;;;;;;;;;5057352;28;20041;-79
2023/08/24 05:01:26;;;;;;;16.88;11.68;;;;;;;;;;5052200;28;20052;-78
2023/08/24 05:03:55;;;;;;;15.32;10.80;;;;;;;;;;5036466;28;20128;-77
2023/08/24 05:06:21;;;;;;;15.40;10.80;;;;;;;;;;5053158;28;20053;-78
2023/08/24 05:08:47;;;;;;;13.38;9.88;;;;;;;;;;5049247;28;20053;-78
2023/08/24 05:11:14;;;;;;;12.80;9.80;;;;;;;;;;5042524;28;20131;-78
2023/08/24 05:13:41;;;;;;;14.43;9.52;;;;;;;;;;5053406;28;20045;-78
2023/08/24 05:16:07;;;;;;;13.35;9.05;;;;;;;;;;5056880;28;20563;-78
2023/08/24 05:18:37;;;;;;;15.18;9.75;;;;;;;;;;5051615;28;20037;-78
2023/08/24 05:21:04;;;;;;;13.88;8.88;;;;;;;;;;5051063;28;20079;-78
2023/08/24 05:23:30;;;;;;;11.90;8.75;;;;;;;;;;5053437;28;20092;-79
2023/08/24 05:26:00;;;;;;;14.40;9.18;;;;;;;;;;5051767;28;20037;-78
2023/08/24 05:28:27;;;;;;;12.48;8.68;;;;;;;;;;5051719;28;20041;-78
2023/08/24 05:30:53;;;;;;;10.80;7.90;;;;;;;;;;5052412;28;20380;-78
2023/08/24 05:33:20;;;;;;;12.05;7.65;;;;;;;;;;5051338;28;20052;-79
2023/08/24 05:35:46;;;;;;;10.77;6.90;;;;;;;;;;5052385;28;20053;-79
2023/08/24 05:38:13;;;;;;;11.73;6.88;;;;;;;;;;5051888;28;20037;-78
2023/08/24 05:40:39;;;;;;;9.77;6.88;;;;;;;;;;5052546;28;20040;-79
2023/08/24 05:43:05;;;;;;;11.23;6.63;;;;;;;;;;5052961;28;20110;-79
2023/08/24 05:45:32;;;;;;;8.63;6.03;;;;;;;;;;5041029;28;20147;-78
2023/08/24 05:47:58;;;;;;;12.93;5.85;;;;;;;;;;5051675;28;20059;-79
2023/08/24 05:50:24;;;;;;;10.10;5.47;;;;;;;;;;5052425;28;20041;-79
2023/08/24 05:52:51;;;;;;;8.48;5.30;;;;;;;;;;5045699;28;20049;-79
2023/08/24 05:55:17;;;;;;;9.35;4.93;;;;;;;;;;5052810;28;20495;-79
2023/08/24 05:57:43;;;;;;;9.25;5.10;;;;;;;;;;5053542;28;20041;-78
2023/08/24 06:00:09;;;;;;;10.82;5.18;;;;;;;;;;5048343;28;20512;-78
2023/08/24 06:02:36;;;;;;;9.43;5.10;;;;;;;;;;5047161;28;20049;-79
2023/08/24 06:05:02;;;;;;;10.30;5.45;;;;;;;;;;5051370;28;20061;-79
2023/08/24 06:07:29;;;;;;;9.88;5.20;;;;;;;;;;5056780;28;20167;-79
2023/08/24 06:09:56;;;;;;;10.20;5.28;;;;;;;;;;5057079;28;20047;-80
2023/08/24 06:12:22;;;;;;;11.45;5.45;;;;;;;;;;5037938;28;20041;-78
2023/08/24 06:14:48;;;;;;;9.55;5.63;;;;;;;;;;5054414;28;20049;-78
2023/08/24 06:17:14;;;;;;;11.63;5.45;;;;;;;;;;5045828;28;20048;-77
2023/08/24 06:19:41;;;;;;;8.90;5.05;;;;;;;;;;5053583;28;20140;-77
2023/08/24 06:22:07;;;;;;;9.82;5.78;;;;;;;;;;5057277;28;20103;-77
2023/08/24 06:24:33;;;;;;;10.05;5.97;;;;;;;;;;5064852;28;20050;-78
2023/08/24 06:27:00;;;;;;;11.57;5.47;;;;;;;;;;5056763;28;20133;-77
2023/08/24 06:29:28;;;;;;;13.85;4.88;;;;;;;;;;5050216;28;20056;-78
2023/08/24 06:31:54;;;;;;;9.00;4.75;;;;;;;;;;5056530;28;20048;-78
2023/08/24 06:34:20;;;;;;;14.20;5.45;;;;;;;;;;5045849;28;20048;-77
2023/08/24 06:36:47;;;;;;;9.25;4.60;;;;;;;;;;5056228;28;20059;-77
2023/08/24 06:39:13;;;;;;;7.68;4.82;;;;;;;;;;5054372;28;20057;-77
2023/08/24 06:41:39;;;;;;;9.68;5.45;;;;;;;;;;5054806;28;20048;-78
2023/08/24 06:44:05;;;;;;;11.57;6.15;;;;;;;;;;5047544;28;20419;-78
2023/08/24 06:46:31;;;;;;;9.57;5.60;;;;;;;;;;5043642;28;20415;-78
2023/08/24 06:48:57;;;;;;;12.52;6.05;;;;;;;;;;5056299;28;20041;-78
2023/08/24 06:51:23;;;;;;;9.38;6.10;;;;;;;;;;5050249;28;20110;-78
2023/08/24 06:53:50;;;;;;;12.85;6.13;;;;;;;;;;5056273;28;20162;-77
2023/08/24 06:56:17;;;;;;;12.38;6.53;;;;;;;;;;5056513;28;20518;-78
2023/08/24 06:58:43;;;;;;;10.20;7.00;;;;;;;;;;5072819;28;20052;-78
2023/08/24 07:01:10;;;;;;;11.43;6.70;;;;;;;;;;5052585;28;20056;-78
2023/08/24 07:03:36;;;;;;;11.70;6.65;;;;;;;;;;5053287;28;20052;-78
2023/08/24 07:06:04;;;;;;;10.90;7.15;;;;;;;;;;5050397;28;20097;-78
2023/08/24 07:08:30;;;;;;;10.43;7.32;;;;;;;;;;5050121;28;20049;-78
2023/08/24 07:10:56;;;;;;;14.10;7.10;;;;;;;;;;5056142;28;20053;-77
2023/08/24 07:13:22;;;;;;;11.82;6.97;;;;;;;;;;5054198;28;20037;-78
2023/08/24 07:15:49;;;;;;;13.77;8.05;;;;;;;;;;5066027;28;20433;-78
2023/08/24 07:18:15;;;;;;;12.68;6.82;;;;;;;;;;5064362;28;20506;-77
2023/08/24 07:20:41;;;;;;;11.60;7.30;;;;;;;;;;5034042;28;20102;-77
2023/08/24 07:23:08;;;;;;;13.95;7.03;;;;;;;;;;5056403;28;20045;-78
2023/08/24 07:25:34;;;;;;;12.63;6.95;;;;;;;;;;5050523;28;20040;-78
2023/08/24 07:28:03;;;;;;;13.90;7.90;;;;;;;;;;5055030;28;20049;-79
2023/08/24 07:30:29;;;;;;;12.02;6.78;;;;;;;;;;5056639;28;20487;-78
2023/08/24 07:32:55;;;;;;;14.80;7.03;;;;;;;;;;5062818;28;20048;-78
2023/08/24 07:35:24;;;;;;;14.73;7.93;;;;;;;;;;5056069;28;20057;-78
2023/08/24 07:37:52;;;;;;;13.65;7.90;;;;;;;;;;5052416;28;20489;-78
2023/08/24 07:40:18;;;;;;;11.25;6.93;;;;;;;;;;5048915;28;20084;-78
2023/08/24 07:42:45;;;;;;;11.70;7.45;;;;;;;;;;5038804;28;20041;-78
2023/08/24 07:45:11;;;;;;;11.80;6.93;;;;;;;;;;5045945;28;20053;-79
2023/08/24 07:47:40;;;;;;;12.30;6.78;;;;;;;;;;5037812;28;20049;-79
2023/08/24 07:50:07;;;;;;;9.73;5.88;;;;;;;;;;5056310;28;20045;-78
2023/08/24 07:52:34;;;;;;;15.15;5.60;;;;;;;;;;5057309;28;20475;-79
2023/08/24 07:55:03;;;;;;;10.48;5.72;;;;;;;;;;5037388;28;20152;-79
2023/08/24 07:57:29;;;;;;;11.05;5.15;;;;;;;;;;5054876;28;20334;-79
2023/08/24 07:59:55;;;;;;;9.50;5.30;;;;;;;;;;5052150;28;20086;-79
2023/08/24 08:02:21;;;;;;;8.90;5.30;;;;;;;;;;5057496;28;20048;-78
2023/08/24 08:04:47;;;;;;;8.98;5.03;;;;;;;;;;5050228;28;20069;-78
2023/08/24 08:07:13;;;;;;;10.38;4.90;;;;;;;;;;5054975;28;20049;-78
2023/08/24 08:09:39;;;;;;;9.90;5.05;;;;;;;;;;5056435;28;20048;-78
2023/08/24 08:12:05;;;;;;;11.10;5.20;;;;;;;;;;5047149;28;20050;-78
2023/08/24 08:14:32;;;;;;;9.75;5.60;;;;;;;;;;5054024;28;20083;-78
2023/08/24 08:17:00;;;;;;;10.43;6.60;;;;;;;;;;5056657;28;20044;-78
2023/08/24 08:19:27;;;;;;;10.15;6.13;;;;;;;;;;5057021;28;20046;-79
2023/08/24 08:21:54;;;;;;;10.98;6.45;;;;;;;;;;5052004;28;20051;-78
2023/08/24 08:24:20;;;;;;;12.98;5.80;;;;;;;;;;5040803;28;20092;-77
2023/08/24 08:26:46;;;;;;;9.82;5.82;;;;;;;;;;5051715;28;20170;-78
2023/08/24 08:29:12;;;;;;;10.20;5.82;;;;;;;;;;5040160;28;20048;-78
2023/08/24 08:31:38;;;;;;;9.95;5.45;;;;;;;;;;5052209;28;20098;-77
2023/08/24 08:34:04;;;;;;;11.23;6.63;;;;;;;;;;5050709;28;20066;-77
2023/08/24 08:36:33;;;;;;;9.90;6.50;;;;;;;;;;5049197;28;20059;-77
2023/08/24 08:38:59;;;;;;;9.95;6.78;;;;;;;;;;5044313;28;20063;-78
2023/08/24 08:41:27;;;;;;;10.35;6.35;;;;;;;;;;5052231;28;20127;-78
2023/08/24 08:43:54;;;;;;;10.63;6.45;;;;;;;;;;5035433;28;20391;-77
2023/08/24 08:46:20;;;;;;;10.23;6.47;;;;;;;;;;5041891;28;20052;-77
2023/08/24 08:48:47;;;;;;;10.00;6.60;;;;;;;;;;5053924;28;20048;-78
2023/08/24 08:51:14;;;;;;;16.38;7.22;;;;;;;;;;5053120;28;20098;-77
2023/08/24 08:53:40;;;;;;;11.65;6.78;;;;;;;;;;5052231;28;20071;-77
2023/08/24 08:56:06;;;;;;;11.93;7.20;;;;;;;;;;5051705;28;20041;-77
2023/08/24 08:58:34;;;;;;;13.15;7.72;;;;;;;;;;5052170;28;20147;-77
2023/08/24 09:01:03;;;;;;;11.13;6.75;;;;;;;;;;5053171;28;20056;-77
2023/08/24 09:03:31;;;;;;;12.80;7.70;;;;;;;;;;5053111;28;20076;-77
2023/08/24 09:05:57;;;;;;;12.43;7.13;;;;;;;;;;5049310;28;20045;-78
2023/08/24 09:08:24;;;;;;;10.98;6.85;;;;;;;;;;5049127;28;20041;-77
2023/08/24 09:10:50;;;;;;;10.45;6.30;;;;;;;;;;5051505;28;20044;-77
2023/08/24 09:13:17;;;;;;;10.73;6.35;;;;;;;;;;5054869;28;20163;-78
2023/08/24 09:15:43;;;;;;;12.07;7.30;;;;;;;;;;5056485;28;20037;-78
2023/08/24 09:18:09;;;;;;;12.35;6.75;;;;;;;;;;5044596;28;20106;-70
2023/08/24 09:20:36;;;;;;;11.02;5.80;;;;;;;;;;5046424;28;20045;-69
2023/08/24 09:23:02;;;;;;;11.27;7.13;;;;;;;;;;5050446;28;20052;-69
2023/08/24 09:25:28;;;;;;;10.77;6.68;;;;;;;;;;5032336;28;20042;-69
2023/08/24 09:27:58;;;;;;;9.57;6.43;;;;;;;;;;5039231;28;20045;-69
2023/08/24 09:30:29;;;;;;;14.40;7.45;;;;;;;;;;5049613;28;20055;-68
2023/08/24 09:32:55;;;;;;;12.65;6.65;;;;;;;;;;5049264;28;20454;-68
2023/08/24 09:35:21;;;;;;;12.13;6.88;;;;;;;;;;5050134;28;20064;-68
2023/08/24 09:37:50;;;;;;;13.55;7.00;;;;;;;;;;5051551;28;20048;-68
2023/08/24 09:40:16;;;;;;;12.63;7.38;;;;;;;;;;5047588;28;20112;-69
2023/08/24 09:42:42;;;;;;;14.02;6.80;;;;;;;;;;5050416;28;20052;-69
2023/08/24 09:45:11;;;;;;;9.25;6.35;;;;;;;;;;5051988;28;20048;-69
2023/08/24 09:47:37;;;;;;;11.30;6.45;;;;;;;;;;5046019;28;20545;-68
2023/08/24 09:50:04;;;;;;;14.45;7.03;;;;;;;;;;5046568;28;20109;-68
2023/08/24 09:52:34;;;;;;;13.90;7.13;;;;;;;;;;5051037;28;20041;-68
2023/08/24 09:55:04;;;;;;;12.70;7.25;;;;;;;;;;5035797;28;20042;-69
2023/08/24 09:57:31;;;;;;;12.23;7.10;;;;;;;;;;5035828;28;20124;-69
2023/08/24 09:59:58;;;;;;;13.23;6.97;;;;;;;;;;5044890;28;20571;-69
2023/08/24 10:02:26;;;;;;;11.65;6.57;;;;;;;;;;5045317;28;20045;-69
2023/08/24 10:04:52;;;;;;;15.68;7.38;;;;;;;;;;5058539;28;20061;-69
2023/08/24 10:07:20;;;;;;;11.90;7.35;;;;;;;;;;5075526;28;20098;-69
2023/08/24 10:10:05;;;;;;;12.35;7.95;;;;;;;;;;5065684;28;20064;-69
2023/08/24 10:12:33;;;;;;;12.27;7.40;;;;;;;;;;5049625;28;20065;-69
2023/08/24 10:15:11;;;;;;;11.07;7.13;;;;;;;;;;5043898;28;20049;-69
2023/08/24 10:17:38;;;;;;;12.70;7.45;;;;;;;;;;5035427;28;20073;-69
2023/08/24 10:20:06;;;;;;;11.80;6.40;;;;;;;;;;5044959;28;20059;-68
2023/08/24 10:22:34;;;;;;;12.25;7.63;;;;;;;;;;5051163;28;20499;-68
2023/08/24 10:25:00;;;;;;;12.45;7.32;;;;;;;;;;5048399;28;20053;-68
2023/08/24 10:27:27;;;;;;;10.70;6.55;;;;;;;;;;5053631;28;20072;-68
2023/08/24 10:29:53;;;;;;;11.93;7.05;;;;;;;;;;5054721;28;20045;-68
2023/08/24 10:32:21;;;;;;;12.63;7.13;;;;;;;;;;5053157;28;20102;-69
2023/08/24 10:34:47;;;;;;;10.75;7.40;;;;;;;;;;5054797;28;20407;-69
2023/08/24 10:37:14;;;;;;;13.13;7.35;;;;;;;;;;5054726;28;20060;-68
2023/08/24 10:39:46;;;;;;;11.50;6.85;;;;;;;;;;5053374;28;20076;-68
2023/08/24 10:42:13;;;;;;;11.55;6.88;;;;;;;;;;5053981;28;20045;-68
2023/08/24 10:44:40;;;;;;;12.05;6.88;;;;;;;;;;5054671;28;20044;-69
2023/08/24 10:47:08;;;;;;;10.65;5.97;;;;;;;;;;5050695;28;20056;-69
2023/08/24 10:49:34;;;;;;;11.10;6.25;;;;;;;;;;5045079;28;20053;-69
2023/08/24 10:52:19;;;;;;;11.38;6.63;;;;;;;;;;5053009;28;20122;-69
2023/08/24 10:54:48;;;;;;;10.18;7.20;;;;;;;;;;5049943;28;20465;-68
2023/08/24 10:57:27;;;;;;;9.85;6.60;;;;;;;;;;5042897;28;20132;-68
2023/08/24 11:00:00;;;;;;;12.98;7.03;;;;;;;;;;5034019;28;20083;-69
2023/08/24 11:02:26;;;;;;;10.05;7.07;;;;;;;;;;5048528;28;20051;-70
2023/08/24 11:05:15;;;;;;;10.98;6.20;;;;;;;;;;5054487;28;20048;-69
2023/08/24 11:07:57;;;;;;;11.65;6.28;;;;;;;;;;5054861;28;20186;-70
2023/08/24 11:10:25;;;;;;;13.32;7.30;;;;;;;;;;5050587;28;20048;-69
2023/08/24 11:13:22;;;;;;;11.98;7.18;;;;;;;;;;5052345;28;20080;-70
2023/08/24 11:15:57;;;;;;;9.95;5.85;;;;;;;;;;5034132;28;20063;-69
2023/08/24 11:18:26;;;;;;;11.80;6.32;;;;;;;;;;5054445;28;20045;-69
2023/08/24 11:21:02;;;;;;;8.90;5.45;;;;;;;;;;5049421;28;20555;-69
2023/08/24 11:23:28;;;;;;;12.80;7.53;;;;;;;;;;5051015;28;20047;-69
2023/08/24 11:25:57;;;;;;;11.57;6.47;;;;;;;;;;5041732;28;20407;-69
2023/08/24 11:28:24;;;;;;;11.82;7.25;;;;;;;;;;5051939;28;20163;-70
2023/08/24 11:30:50;;;;;;;11.18;6.97;;;;;;;;;;5046646;28;20122;-69
2023/08/24 11:33:20;;;;;;;9.43;6.38;;;;;;;;;;5050673;28;20045;-68
2023/08/24 11:35:47;;;;;;;10.25;6.60;;;;;;;;;;5050577;28;20037;-68
2023/08/24 11:38:13;;;;;;;10.55;6.70;;;;;;;;;;5039847;28;20052;-69
2023/08/24 11:40:39;;;;;;;10.93;5.88;;;;;;;;;;5047468;28;20037;-69
2023/08/24 11:43:05;;;;;;;11.05;6.10;;;;;;;;;;5049392;28;20509;-68
2023/08/24 11:45:32;;;;;;;9.77;7.05;;;;;;;;;;5053061;28;20053;-70
2023/08/24 11:48:04;;;;;;;10.65;7.30;;;;;;;;;;5053728;28;20056;-69
2023/08/24 11:50:30;;;;;;;9.18;6.80;;;;;;;;;;5053829;28;20187;-69
2023/08/24 11:52:56;;;;;;;11.68;7.00;;;;;;;;;;5051622;28;20834;-70
2023/08/24 11:55:23;;;;;;;11.15;6.07;;;;;;;;;;5052402;28;20084;-69
2023/08/24 11:57:50;;;;;;;9.93;5.88;;;;;;;;;;5052768;28;20052;-69
2023/08/24 12:00:16;;;;;;;9.07;6.18;;;;;;;;;;5047593;28;20040;-69
2023/08/24 12:02:42;;;;;;;10.30;6.05;;;;;;;;;;5049971;28;20057;-70
2023/08/24 12:05:09;;;;;;;10.52;5.93;;;;;;;;;;5050779;28;20109;-69
2023/08/24 12:07:35;;;;;;;11.40;5.60;;;;;;;;;;5052875;28;20049;-70
2023/08/24 12:10:02;;;;;;;9.82;5.30;;;;;;;;;;5049847;28;20524;-70
2023/08/24 12:12:28;;;;;;;10.07;5.93;;;;;;;;;;5052674;28;20041;-70
2023/08/24 12:14:57;;;;;;;10.45;5.25;;;;;;;;;;5053463;28;20047;-69
2023/08/24 12:17:23;;;;;;;14.38;5.93;;;;;;;;;;5053272;28;20041;-68
2023/08/24 12:20:00;;;;;;;12.75;5.75;;;;;;;;;;5052246;28;20116;-69
2023/08/24 12:22:26;;;;;;;8.55;4.78;;;;;;;;;;5041691;28;20076;-68
2023/08/24 12:24:52;;;;;;;9.25;5.13;;;;;;;;;;5053383;28;20049;-70
2023/08/24 12:27:19;;;;;;;10.40;6.15;;;;;;;;;;5050896;28;20084;-69
2023/08/24 12:29:49;;;;;;;9.75;6.10;;;;;;;;;;5052153;28;20072;-69
2023/08/24 12:32:16;;;;;;;8.82;6.10;;;;;;;;;;5051059;28;20040;-69
2023/08/24 12:34:45;;;;;;;11.18;5.65;;;;;;;;;;5052044;28;20135;-70
2023/08/24 12:37:11;;;;;;;8.75;6.45;;;;;;;;;;5043862;28;20040;-69
2023/08/24 12:39:38;;;;;;;10.02;6.15;;;;;;;;;;5051908;28;20037;-69
2023/08/24 12:42:04;;;;;;;8.88;5.80;;;;;;;;;;5047891;28;20048;-70
2023/08/24 12:44:30;;;;;;;8.15;5.90;;;;;;;;;;5052309;28;20037;-74
2023/08/24 12:46:56;;;;;;;10.15;6.15;;;;;;;;;;5051224;28;20041;-70
2023/08/24 12:49:22;;;;;;;9.77;6.65;;;;;;;;;;5050776;28;20053;-69
2023/08/24 12:51:48;;;;;;;8.57;6.10;;;;;;;;;;5043833;28;20055;-70
2023/08/24 12:54:14;;;;;;;10.73;5.95;;;;;;;;;;5041865;28;20106;-69
2023/08/24 12:56:40;;;;;;;10.57;5.82;;;;;;;;;;5051198;28;20059;-69
2023/08/24 12:59:07;;;;;;;9.63;5.60;;;;;;;;;;5043495;28;20064;-69
2023/08/24 13:01:33;;;;;;;9.45;5.88;;;;;;;;;;5032125;28;20045;-69
2023/08/24 13:03:59;;;;;;;10.55;6.32;;;;;;;;;;5051723;28;20068;-69
2023/08/24 13:06:25;;;;;;;10.68;6.00;;;;;;;;;;5050531;28;20059;-68
2023/08/24 13:08:53;;;;;;;9.10;4.88;;;;;;;;;;5047813;28;20484;-69
2023/08/24 13:11:19;;;;;;;8.23;5.68;;;;;;;;;;5050673;28;20048;-68
2023/08/24 13:13:45;;;;;;;9.02;5.30;;;;;;;;;;5035541;28;20037;-70
2023/08/24 13:16:11;;;;;;;11.45;5.90;;;;;;;;;;5048104;28;20408;-75
2023/08/24 13:18:37;;;;;;;8.32;5.55;;;;;;;;;;5041606;28;20045;-76
2023/08/24 13:21:03;;;;;;;12.32;6.45;;;;;;;;;;5044642;28;20049;-75
2023/08/24 13:23:30;;;;;;;10.63;6.28;;;;;;;;;;5034987;28;20048;-78
2023/08/24 13:25:59;;;;;;;11.48;5.63;;;;;;;;;;5050414;28;20045;-76
2023/08/24 13:28:25;;;;;;;12.85;7.03;;;;;;;;;;5030507;28;20053;-77
2023/08/24 13:30:51;;;;;;;12.02;6.10;;;;;;;;;;5038313;28;20107;-77
2023/08/24 13:33:19;;;;;;;10.43;6.05;;;;;;;;;;5046522;28;20041;-76
2023/08/24 13:35:45;;;;;;;10.02;5.97;;;;;;;;;;5050663;28;20068;-77
2023/08/24 13:38:11;;;;;;;10.48;6.22;;;;;;;;;;5052875;28;20202;-77
2023/08/24 13:40:37;;;;;;;11.57;6.00;;;;;;;;;;5055559;28;20118;-77
2023/08/24 13:43:04;;;;;;;9.70;6.00;;;;;;;;;;5039170;28;20073;-77
2023/08/24 13:45:31;;;;;;;12.80;5.55;;;;;;;;;;5054614;28;20069;-77
2023/08/24 13:47:57;;;;;;;10.82;7.10;;;;;;;;;;5052781;28;20041;-76
2023/08/24 13:50:23;;;;;;;9.85;6.68;;;;;;;;;;5057110;28;20056;-77
2023/08/24 13:52:50;;;;;;;13.15;6.75;;;;;;;;;;5056002;28;20465;-78
2023/08/24 13:55:16;;;;;;;11.73;5.95;;;;;;;;;;5055766;28;20068;-77
2023/08/24 13:57:43;;;;;;;12.30;6.55;;;;;;;;;;5052752;28;20095;-75
2023/08/24 14:00:10;;;;;;;9.95;6.20;;;;;;;;;;5052263;28;20037;-76
2023/08/24 14:02:36;;;;;;;11.80;6.90;;;;;;;;;;5048478;28;20056;-76
2023/08/24 14:05:02;;;;;;;11.98;6.30;;;;;;;;;;5043273;28;20056;-76
2023/08/24 14:07:28;;;;;;;10.43;6.15;;;;;;;;;;5051166;28;20044;-75
2023/08/24 14:09:54;;;;;;;8.35;5.13;;;;;;;;;;5035985;28;20052;-76
2023/08/24 14:12:20;;;;;;;11.18;5.82;;;;;;;;;;5041590;28;20049;-76
2023/08/24 14:14:46;;;;;;;8.48;5.18;;;;;;;;;;5050249;28;20057;-76
2023/08/24 14:17:12;;;;;;;9.45;5.03;;;;;;;;;;5050912;28;20048;-76
2023/08/24 14:19:38;;;;;;;11.88;5.80;;;;;;;;;;5049624;28;20079;-76
2023/08/24 14:22:05;;;;;;;9.77;5.80;;;;;;;;;;5045624;28;20053;-76
2023/08/24 14:24:31;;;;;;;11.70;5.63;;;;;;;;;;5054785;28;20449;-76
2023/08/24 14:26:57;;;;;;;9.35;5.40;;;;;;;;;;5049634;28;20553;-76
2023/08/24 14:29:23;;;;;;;10.55;5.85;;;;;;;;;;5054279;28;20407;-77